sensor_id;sensor_type;location;lat;lon;timestamp;pressure;altitude;pressure_sealevel;temperature;humidity
59375;BME280;45172;55.006;73.460;2023-08-17T00:00:45;100421.84;;;16.05;nan
59375;BME280;45172;55.006;73.460;2023-08-17T00:03:11;100447.59;;;16.22;nan
59375;BME280;45172;55.006;73.460;2023-08-17T00:05:37;100436.03;;;16.16;nan
59375;BME280;45172;55.006;73.460;2023-08-17T00:08:04;100414.66;;;16.13;nan
59375;BME280;45172;55.006;73.460;2023-08-17T00:10:30;100430.66;;;16.23;nan
59375;BME280;45172;55.006;73.460;2023-08-17T00:12:56;100438.59;;;16.30;nan
59375;BME280;45172;55.006;73.460;2023-08-17T00:15:23;100409.31;;;16.18;nan
59375;BME280;45172;55.006;73.460;2023-08-17T00:17:49;100414.63;;;16.23;nan
59375;BME280;45172;55.006;73.460;2023-08-17T00:20:16;100390.66;;;16.12;nan
59375;BME280;45172;55.006;73.460;2023-08-17T00:22:42;100374.69;;;16.02;nan
59375;BME280;45172;55.006;73.460;2023-08-17T00:25:08;100420.75;;;16.34;nan
59375;BME280;45172;55.006;73.460;2023-08-17T00:27:34;100430.47;;;16.46;nan
59375;BME280;45172;55.006;73.460;2023-08-17T00:30:02;100431.38;;;16.47;nan
59375;BME280;45172;55.006;73.460;2023-08-17T00:32:28;100439.41;;;16.47;nan
59375;BME280;45172;55.006;73.460;2023-08-17T00:34:54;100431.41;;;16.40;nan
59375;BME280;45172;55.006;73.460;2023-08-17T00:37:20;100413.66;;;16.32;nan
59375;BME280;45172;55.006;73.460;2023-08-17T00:39:47;100414.50;;;16.38;nan
59375;BME280;45172;55.006;73.460;2023-08-17T00:42:13;100417.19;;;16.38;nan
59375;BME280;45172;55.006;73.460;2023-08-17T00:44:39;100447.34;;;16.56;nan
59375;BME280;45172;55.006;73.460;2023-08-17T00:47:05;100450.00;;;16.57;nan
59375;BME280;45172;55.006;73.460;2023-08-17T00:49:32;100447.31;;;16.61;nan
59375;BME280;45172;55.006;73.460;2023-08-17T00:51:58;100408.31;;;16.35;nan
59375;BME280;45172;55.006;73.460;2023-08-17T00:54:25;100418.06;;;16.40;nan
59375;BME280;45172;55.006;73.460;2023-08-17T00:56:53;100458.00;;;16.64;nan
59375;BME280;45172;55.006;73.460;2023-08-17T00:59:23;100459.78;;;16.65;nan
59375;BME280;45172;55.006;73.460;2023-08-17T01:01:49;100457.13;;;16.57;nan
59375;BME280;45172;55.006;73.460;2023-08-17T01:04:16;100453.56;;;16.60;nan
59375;BME280;45172;55.006;73.460;2023-08-17T01:06:42;100431.38;;;16.48;nan
59375;BME280;45172;55.006;73.460;2023-08-17T01:09:08;100438.41;;;16.59;nan
59375;BME280;45172;55.006;73.460;2023-08-17T01:11:44;100436.59;;;16.62;nan
59375;BME280;45172;55.006;73.460;2023-08-17T01:16:56;100445.28;;;16.89;nan
59375;BME280;45172;55.006;73.460;2023-08-17T01:19:27;100447.91;;;16.97;nan
59375;BME280;45172;55.006;73.460;2023-08-17T01:22:14;100441.78;;;16.84;nan
59375;BME280;45172;55.006;73.460;2023-08-17T01:24:41;100440.88;;;16.85;nan
59375;BME280;45172;55.006;73.460;2023-08-17T01:27:07;100432.97;;;16.69;nan
59375;BME280;45172;55.006;73.460;2023-08-17T01:29:33;100415.25;;;16.56;nan
59375;BME280;45172;55.006;73.460;2023-08-17T01:32:30;100459.72;;;16.69;nan
59375;BME280;45172;55.006;73.460;2023-08-17T01:35:30;100458.00;;;16.62;nan
59375;BME280;45172;55.006;73.460;2023-08-17T01:38:02;100449.91;;;16.70;nan
59375;BME280;45172;55.006;73.460;2023-08-17T01:40:31;100438.34;;;16.66;nan
59375;BME280;45172;55.006;73.460;2023-08-17T01:42:59;100433.84;;;16.71;nan
59375;BME280;45172;55.006;73.460;2023-08-17T01:45:26;100423.16;;;16.71;nan
59375;BME280;45172;55.006;73.460;2023-08-17T01:47:54;100455.06;;;16.90;nan
59375;BME280;45172;55.006;73.460;2023-08-17T01:50:21;100422.19;;;16.79;nan
59375;BME280;45172;55.006;73.460;2023-08-17T01:52:47;100454.16;;;16.94;nan
59375;BME280;45172;55.006;73.460;2023-08-17T01:55:13;100437.13;;;17.06;nan
59375;BME280;45172;55.006;73.460;2023-08-17T01:57:39;100438.94;;;17.01;nan
59375;BME280;45172;55.006;73.460;2023-08-17T02:00:07;100443.47;;;16.93;nan
59375;BME280;45172;55.006;73.460;2023-08-17T02:02:36;100454.22;;;16.87;nan
59375;BME280;45172;55.006;73.460;2023-08-17T02:05:03;100473.81;;;16.90;nan
59375;BME280;45172;55.006;73.460;2023-08-17T02:07:29;100480.06;;;16.92;nan
59375;BME280;45172;55.006;73.460;2023-08-17T02:09:55;100467.63;;;16.83;nan
59375;BME280;45172;55.006;73.460;2023-08-17T02:12:21;100446.31;;;16.71;nan
59375;BME280;45172;55.006;73.460;2023-08-17T02:14:48;100484.50;;;16.92;nan
59375;BME280;45172;55.006;73.460;2023-08-17T02:17:14;100472.94;;;16.90;nan
59375;BME280;45172;55.006;73.460;2023-08-17T02:19:42;100479.94;;;17.08;nan
59375;BME280;45172;55.006;73.460;2023-08-17T02:22:09;100486.09;;;17.18;nan
59375;BME280;45172;55.006;73.460;2023-08-17T02:24:35;100494.09;;;17.22;nan
59375;BME280;45172;55.006;73.460;2023-08-17T02:27:01;100454.00;;;17.13;nan
59375;BME280;45172;55.006;73.460;2023-08-17T02:29:28;100456.69;;;17.13;nan
59375;BME280;45172;55.006;73.460;2023-08-17T02:31:54;100469.09;;;17.20;nan
59375;BME280;45172;55.006;73.460;2023-08-17T02:34:20;100451.31;;;17.16;nan
59375;BME280;45172;55.006;73.460;2023-08-17T02:36:46;100448.63;;;17.16;nan
59375;BME280;45172;55.006;73.460;2023-08-17T02:39:12;100463.75;;;17.20;nan
59375;BME280;45172;55.006;73.460;2023-08-17T02:41:38;100455.66;;;17.28;nan
59375;BME280;45172;55.006;73.460;2023-08-17T02:44:05;100457.31;;;17.40;nan
59375;BME280;45172;55.006;73.460;2023-08-17T02:46:31;100411.97;;;17.23;nan
59375;BME280;45172;55.006;73.460;2023-08-17T02:48:57;100465.16;;;17.56;nan
59375;BME280;45172;55.006;73.460;2023-08-17T02:51:23;100452.69;;;17.51;nan
59375;BME280;45172;55.006;73.460;2023-08-17T02:53:49;100466.88;;;17.60;nan
59375;BME280;45172;55.006;73.460;2023-08-17T02:56:15;100442.03;;;17.48;nan
59375;BME280;45172;55.006;73.460;2023-08-17T02:58:42;100474.47;;;17.99;nan
59375;BME280;45172;55.006;73.460;2023-08-17T03:01:08;100476.91;;;18.17;nan
59375;BME280;45172;55.006;73.460;2023-08-17T03:03:34;100447.16;;;18.36;nan
59375;BME280;45172;55.006;73.460;2023-08-17T03:06:02;100464.38;;;18.79;nan
59375;BME280;45172;55.006;73.460;2023-08-17T03:08:28;100470.06;;;19.14;nan
59375;BME280;45172;55.006;73.460;2023-08-17T03:10:55;100472.41;;;19.33;nan
59375;BME280;45172;55.006;73.460;2023-08-17T03:13:21;100472.94;;;19.52;nan
59375;BME280;45172;55.006;73.460;2023-08-17T03:15:47;100446.75;;;19.62;nan
59375;BME280;45172;55.006;73.460;2023-08-17T03:18:13;100452.63;;;19.81;nan
59375;BME280;45172;55.006;73.460;2023-08-17T03:20:40;100439.19;;;19.82;nan
59375;BME280;45172;55.006;73.460;2023-08-17T03:23:06;100427.31;;;19.94;nan
59375;BME280;45172;55.006;73.460;2023-08-17T03:25:34;100455.25;;;20.28;nan
59375;BME280;45172;55.006;73.460;2023-08-17T03:28:00;100461.59;;;20.24;nan
59375;BME280;45172;55.006;73.460;2023-08-17T03:30:27;100464.38;;;20.19;nan
59375;BME280;45172;55.006;73.460;2023-08-17T03:32:54;100418.59;;;19.81;nan
59375;BME280;45172;55.006;73.460;2023-08-17T03:35:20;100467.50;;;20.01;nan
59375;BME280;45172;55.006;73.460;2023-08-17T03:37:46;100463.81;;;20.05;nan
59375;BME280;45172;55.006;73.460;2023-08-17T03:40:12;100449.00;;;20.26;nan
59375;BME280;45172;55.006;73.460;2023-08-17T03:42:39;100457.31;;;20.55;nan
59375;BME280;45172;55.006;73.460;2023-08-17T03:45:06;100436.00;;;20.45;nan
59375;BME280;45172;55.006;73.460;2023-08-17T03:47:32;100443.66;;;20.62;nan
59375;BME280;45172;55.006;73.460;2023-08-17T03:49:59;100434.66;;;20.63;nan
59375;BME280;45172;55.006;73.460;2023-08-17T03:52:25;100459.28;;;20.86;nan
59375;BME280;45172;55.006;73.460;2023-08-17T03:54:51;100465.53;;;20.86;nan
59375;BME280;45172;55.006;73.460;2023-08-17T03:57:17;100458.44;;;20.82;nan
59375;BME280;45172;55.006;73.460;2023-08-17T03:59:44;100453.03;;;20.84;nan
59375;BME280;45172;55.006;73.460;2023-08-17T04:02:10;100473.56;;;20.88;nan
59375;BME280;45172;55.006;73.460;2023-08-17T04:04:36;100461.28;;;20.74;nan
59375;BME280;45172;55.006;73.460;2023-08-17T04:07:03;100469.94;;;20.89;nan
59375;BME280;45172;55.006;73.460;2023-08-17T04:09:29;100471.78;;;20.88;nan
59375;BME280;45172;55.006;73.460;2023-08-17T04:11:56;100466.00;;;20.66;nan
59375;BME280;45172;55.006;73.460;2023-08-17T04:14:23;100476.00;;;20.61;nan
59375;BME280;45172;55.006;73.460;2023-08-17T04:16:49;100476.50;;;20.39;nan
59375;BME280;45172;55.006;73.460;2023-08-17T04:19:15;100479.25;;;20.36;nan
59375;BME280;45172;55.006;73.460;2023-08-17T04:21:41;100454.03;;;20.42;nan
59375;BME280;45172;55.006;73.460;2023-08-17T04:24:07;100475.63;;;20.76;nan
59375;BME280;45172;55.006;73.460;2023-08-17T04:26:33;100473.31;;;20.97;nan
59375;BME280;45172;55.006;73.460;2023-08-17T04:29:00;100467.31;;;21.22;nan
59375;BME280;45172;55.006;73.460;2023-08-17T04:31:26;100474.97;;;21.38;nan
59375;BME280;45172;55.006;73.460;2023-08-17T04:33:52;100450.78;;;21.34;nan
59375;BME280;45172;55.006;73.460;2023-08-17T04:36:18;100451.19;;;21.20;nan
59375;BME280;45172;55.006;73.460;2023-08-17T04:38:44;100467.06;;;21.31;nan
59375;BME280;45172;55.006;73.460;2023-08-17T04:41:11;100449.97;;;21.32;nan
59375;BME280;45172;55.006;73.460;2023-08-17T04:43:37;100455.31;;;21.34;nan
59375;BME280;45172;55.006;73.460;2023-08-17T04:46:03;100459.78;;;21.35;nan
59375;BME280;45172;55.006;73.460;2023-08-17T04:48:29;100450.22;;;21.23;nan
59375;BME280;45172;55.006;73.460;2023-08-17T04:50:55;100464.94;;;21.43;nan
59375;BME280;45172;55.006;73.460;2023-08-17T04:53:21;100465.28;;;21.62;nan
59375;BME280;45172;55.006;73.460;2023-08-17T04:55:47;100439.16;;;21.64;nan
59375;BME280;45172;55.006;73.460;2023-08-17T04:58:14;100461.13;;;21.83;nan
59375;BME280;45172;55.006;73.460;2023-08-17T05:00:40;100467.31;;;21.87;nan
59375;BME280;45172;55.006;73.460;2023-08-17T05:03:07;100477.97;;;21.92;nan
59375;BME280;45172;55.006;73.460;2023-08-17T05:05:33;100477.69;;;22.01;nan
59375;BME280;45172;55.006;73.460;2023-08-17T05:08:02;100479.66;;;21.94;nan
59375;BME280;45172;55.006;73.460;2023-08-17T05:10:28;100456.88;;;21.76;nan
59375;BME280;45172;55.006;73.460;2023-08-17T05:12:55;100475.94;;;22.00;nan
59375;BME280;45172;55.006;73.460;2023-08-17T05:15:21;100479.13;;;22.13;nan
59375;BME280;45172;55.006;73.460;2023-08-17T05:17:48;100462.44;;;22.30;nan
59375;BME280;45172;55.006;73.460;2023-08-17T05:20:14;100466.16;;;22.54;nan
59375;BME280;45172;55.006;73.460;2023-08-17T05:22:40;100451.50;;;22.63;nan
59375;BME280;45172;55.006;73.460;2023-08-17T05:25:06;100473.59;;;22.75;nan
59375;BME280;45172;55.006;73.460;2023-08-17T05:27:33;100447.50;;;22.47;nan
59375;BME280;45172;55.006;73.460;2023-08-17T05:29:59;100474.06;;;22.61;nan
59375;BME280;45172;55.006;73.460;2023-08-17T05:32:25;100454.88;;;22.70;nan
59375;BME280;45172;55.006;73.460;2023-08-17T05:34:51;100470.38;;;22.90;nan
59375;BME280;45172;55.006;73.460;2023-08-17T05:37:17;100464.56;;;23.03;nan
59375;BME280;45172;55.006;73.460;2023-08-17T05:39:43;100483.28;;;23.09;nan
59375;BME280;45172;55.006;73.460;2023-08-17T05:42:09;100488.03;;;23.27;nan
59375;BME280;45172;55.006;73.460;2023-08-17T05:44:35;100480.38;;;23.40;nan
59375;BME280;45172;55.006;73.460;2023-08-17T05:47:01;100490.38;;;23.64;nan
59375;BME280;45172;55.006;73.460;2023-08-17T05:49:28;100486.00;;;23.60;nan
59375;BME280;45172;55.006;73.460;2023-08-17T05:51:54;100486.00;;;23.60;nan
59375;BME280;45172;55.006;73.460;2023-08-17T05:54:20;100490.59;;;23.58;nan
59375;BME280;45172;55.006;73.460;2023-08-17T05:56:46;100491.50;;;23.58;nan
59375;BME280;45172;55.006;73.460;2023-08-17T05:59:13;100487.72;;;23.37;nan
59375;BME280;45172;55.006;73.460;2023-08-17T06:01:40;100492.34;;;23.33;nan
59375;BME280;45172;55.006;73.460;2023-08-17T06:04:06;100495.44;;;23.22;nan
59375;BME280;45172;55.006;73.460;2023-08-17T06:06:32;100492.09;;;23.14;nan
59375;BME280;45172;55.006;73.460;2023-08-17T06:08:59;100490.88;;;23.50;nan
59375;BME280;45172;55.006;73.460;2023-08-17T06:11:26;100486.41;;;23.49;nan
59375;BME280;45172;55.006;73.460;2023-08-17T06:13:52;100460.88;;;23.05;nan
59375;BME280;45172;55.006;73.460;2023-08-17T06:16:18;100495.22;;;23.02;nan
59375;BME280;45172;55.006;73.460;2023-08-17T06:18:44;100489.72;;;22.78;nan
59375;BME280;45172;55.006;73.460;2023-08-17T06:21:10;100474.34;;;22.80;nan
59375;BME280;45172;55.006;73.460;2023-08-17T06:23:36;100494.75;;;22.89;nan
59375;BME280;45172;55.006;73.460;2023-08-17T06:26:02;100496.06;;;22.77;nan
59375;BME280;45172;55.006;73.460;2023-08-17T06:28:28;100494.22;;;22.77;nan
59375;BME280;45172;55.006;73.460;2023-08-17T06:30:55;100492.84;;;22.92;nan
59375;BME280;45172;55.006;73.460;2023-08-17T06:33:22;100493.75;;;22.91;nan
59375;BME280;45172;55.006;73.460;2023-08-17T06:35:49;100503.31;;;23.02;nan
59375;BME280;45172;55.006;73.460;2023-08-17T06:38:15;100482.53;;;23.04;nan
59375;BME280;45172;55.006;73.460;2023-08-17T06:40:41;100484.72;;;23.19;nan
59375;BME280;45172;55.006;73.460;2023-08-17T06:43:07;100505.03;;;23.31;nan
59375;BME280;45172;55.006;73.460;2023-08-17T06:45:34;100500.25;;;23.12;nan
59375;BME280;45172;55.006;73.460;2023-08-17T06:48:00;100517.56;;;23.07;nan
59375;BME280;45172;55.006;73.460;2023-08-17T06:50:26;100502.53;;;22.98;nan
59375;BME280;45172;55.006;73.460;2023-08-17T06:52:54;100474.13;;;22.86;nan
59375;BME280;45172;55.006;73.460;2023-08-17T06:55:21;100507.63;;;23.07;nan
59375;BME280;45172;55.006;73.460;2023-08-17T06:57:47;100510.16;;;23.12;nan
59375;BME280;45172;55.006;73.460;2023-08-17T07:00:18;100525.28;;;22.91;nan
59375;BME280;45172;55.006;73.460;2023-08-17T07:02:49;100514.38;;;22.67;nan
59375;BME280;45172;55.006;73.460;2023-08-17T07:05:16;100509.31;;;22.56;nan
59375;BME280;45172;55.006;73.460;2023-08-17T07:07:42;100528.16;;;22.57;nan
59375;BME280;45172;55.006;73.460;2023-08-17T07:10:10;100521.38;;;22.73;nan
59375;BME280;45172;55.006;73.460;2023-08-17T07:12:39;100524.81;;;23.05;nan
59375;BME280;45172;55.006;73.460;2023-08-17T07:15:07;100514.59;;;23.15;nan
59375;BME280;45172;55.006;73.460;2023-08-17T07:17:34;100519.44;;;23.32;nan
59375;BME280;45172;55.006;73.460;2023-08-17T07:20:04;100545.03;;;23.47;nan
59375;BME280;45172;55.006;73.460;2023-08-17T07:22:31;100537.91;;;23.44;nan
59375;BME280;45172;55.006;73.460;2023-08-17T07:24:57;100524.47;;;23.43;nan
59375;BME280;45172;55.006;73.460;2023-08-17T07:27:24;100528.56;;;23.80;nan
59375;BME280;45172;55.006;73.460;2023-08-17T07:29:50;100518.47;;;23.84;nan
59375;BME280;45172;55.006;73.460;2023-08-17T07:32:16;100535.41;;;23.65;nan
59375;BME280;45172;55.006;73.460;2023-08-17T07:34:42;100527.22;;;23.41;nan
59375;BME280;45172;55.006;73.460;2023-08-17T07:37:09;100521.22;;;23.33;nan
59375;BME280;45172;55.006;73.460;2023-08-17T07:39:35;100518.13;;;23.44;nan
59375;BME280;45172;55.006;73.460;2023-08-17T07:42:02;100525.75;;;23.58;nan
59375;BME280;45172;55.006;73.460;2023-08-17T07:44:28;100516.47;;;23.65;nan
59375;BME280;45172;55.006;73.460;2023-08-17T07:46:57;100522.13;;;23.83;nan
59375;BME280;45172;55.006;73.460;2023-08-17T07:49:25;100524.03;;;24.04;nan
59375;BME280;45172;55.006;73.460;2023-08-17T07:51:51;100522.19;;;24.30;nan
59375;BME280;45172;55.006;73.460;2023-08-17T07:54:17;100495.44;;;23.97;nan
59375;BME280;45172;55.006;73.460;2023-08-17T07:56:43;100485.41;;;23.51;nan
59375;BME280;45172;55.006;73.460;2023-08-17T07:59:10;100521.50;;;23.50;nan
59375;BME280;45172;55.006;73.460;2023-08-17T08:01:36;100536.88;;;23.48;nan
59375;BME280;45172;55.006;73.460;2023-08-17T08:04:02;100513.13;;;23.58;nan
59375;BME280;45172;55.006;73.460;2023-08-17T08:06:28;100499.13;;;23.71;nan
59375;BME280;45172;55.006;73.460;2023-08-17T08:08:54;100520.97;;;23.90;nan
59375;BME280;45172;55.006;73.460;2023-08-17T08:11:22;100513.00;;;24.11;nan
59375;BME280;45172;55.006;73.460;2023-08-17T08:13:48;100509.47;;;24.32;nan
59375;BME280;45172;55.006;73.460;2023-08-17T08:16:14;100515.91;;;24.52;nan
59375;BME280;45172;55.006;73.460;2023-08-17T08:18:40;100525.28;;;24.43;nan
59375;BME280;45172;55.006;73.460;2023-08-17T08:21:06;100526.72;;;24.04;nan
59375;BME280;45172;55.006;73.460;2023-08-17T08:23:32;100521.69;;;23.95;nan
59375;BME280;45172;55.006;73.460;2023-08-17T08:25:58;100515.97;;;24.03;nan
59375;BME280;45172;55.006;73.460;2023-08-17T08:28:24;100520.72;;;24.21;nan
59375;BME280;45172;55.006;73.460;2023-08-17T08:30:52;100508.94;;;24.23;nan
59375;BME280;45172;55.006;73.460;2023-08-17T08:33:19;100525.75;;;24.31;nan
59375;BME280;45172;55.006;73.460;2023-08-17T08:35:45;100510.09;;;24.39;nan
59375;BME280;45172;55.006;73.460;2023-08-17T08:38:11;100491.16;;;24.39;nan
59375;BME280;45172;55.006;73.460;2023-08-17T08:40:40;100523.41;;;24.68;nan
59375;BME280;45172;55.006;73.460;2023-08-17T08:43:08;100515.22;;;24.69;nan
59375;BME280;45172;55.006;73.460;2023-08-17T08:45:35;100515.41;;;24.65;nan
59375;BME280;45172;55.006;73.460;2023-08-17T08:48:04;100527.69;;;24.27;nan
59375;BME280;45172;55.006;73.460;2023-08-17T08:50:32;100529.78;;;24.20;nan
59375;BME280;45172;55.006;73.460;2023-08-17T08:53:02;100526.19;;;24.20;nan
59375;BME280;45172;55.006;73.460;2023-08-17T08:55:34;100532.88;;;24.33;nan
59375;BME280;45172;55.006;73.460;2023-08-17T08:58:04;100534.22;;;24.45;nan
59375;BME280;45172;55.006;73.460;2023-08-17T09:00:33;100528.66;;;24.48;nan
59375;BME280;45172;55.006;73.460;2023-08-17T09:03:02;100519.44;;;24.54;nan
59375;BME280;45172;55.006;73.460;2023-08-17T09:05:31;100514.84;;;24.34;nan
59375;BME280;45172;55.006;73.460;2023-08-17T09:07:59;100519.72;;;24.24;nan
59375;BME280;45172;55.006;73.460;2023-08-17T09:10:26;100525.75;;;24.31;nan
59375;BME280;45172;55.006;73.460;2023-08-17T09:12:53;100528.00;;;24.43;nan
59375;BME280;45172;55.006;73.460;2023-08-17T09:15:19;100513.31;;;24.49;nan
59375;BME280;45172;55.006;73.460;2023-08-17T09:17:45;100532.22;;;24.51;nan
59375;BME280;45172;55.006;73.460;2023-08-17T09:20:40;100534.66;;;24.57;nan
59375;BME280;45172;55.006;73.460;2023-08-17T09:23:13;100532.13;;;24.52;nan
59375;BME280;45172;55.006;73.460;2023-08-17T09:25:40;100534.09;;;24.48;nan
59375;BME280;45172;55.006;73.460;2023-08-17T09:28:07;100530.13;;;24.57;nan
59375;BME280;45172;55.006;73.460;2023-08-17T09:33:19;100532.41;;;24.68;nan
59375;BME280;45172;55.006;73.460;2023-08-17T09:35:45;100524.88;;;24.54;nan
59375;BME280;45172;55.006;73.460;2023-08-17T09:38:11;100501.44;;;24.29;nan
59375;BME280;45172;55.006;73.460;2023-08-17T09:40:38;100542.28;;;24.47;nan
59375;BME280;45172;55.006;73.460;2023-08-17T09:43:04;100528.03;;;24.42;nan
59375;BME280;45172;55.006;73.460;2023-08-17T09:45:30;100544.09;;;24.46;nan
59375;BME280;45172;55.006;73.460;2023-08-17T09:47:59;100537.34;;;24.34;nan
59375;BME280;45172;55.006;73.460;2023-08-17T09:50:26;100541.91;;;24.34;nan
59375;BME280;45172;55.006;73.460;2023-08-17T09:52:55;100547.19;;;24.37;nan
59375;BME280;45172;55.006;73.460;2023-08-17T09:55:24;100519.63;;;24.26;nan
59375;BME280;45172;55.006;73.460;2023-08-17T09:57:51;100535.53;;;24.35;nan
59375;BME280;45172;55.006;73.460;2023-08-17T10:00:21;100536.34;;;24.37;nan
59375;BME280;45172;55.006;73.460;2023-08-17T10:02:49;100541.53;;;24.43;nan
59375;BME280;45172;55.006;73.460;2023-08-17T10:05:18;100533.16;;;24.26;nan
59375;BME280;45172;55.006;73.460;2023-08-17T10:07:54;100555.94;;;24.20;nan
59375;BME280;45172;55.006;73.460;2023-08-17T10:10:27;100537.34;;;24.11;nan
59375;BME280;45172;55.006;73.460;2023-08-17T10:13:08;100537.50;;;24.07;nan
59375;BME280;45172;55.006;73.460;2023-08-17T10:18:37;100552.66;;;24.12;nan
59375;BME280;45172;55.006;73.460;2023-08-17T10:21:22;100530.84;;;23.91;nan
59375;BME280;45172;55.006;73.460;2023-08-17T10:23:49;100541.50;;;23.96;nan
59375;BME280;45172;55.006;73.460;2023-08-17T10:26:16;100496.53;;;23.67;nan
59375;BME280;45172;55.006;73.460;2023-08-17T10:28:44;100545.09;;;23.96;nan
59375;BME280;45172;55.006;73.460;2023-08-17T10:31:10;100537.13;;;23.91;nan
59375;BME280;45172;55.006;73.460;2023-08-17T10:33:37;100553.53;;;23.87;nan
59375;BME280;45172;55.006;73.460;2023-08-17T10:36:05;100538.25;;;23.86;nan
59375;BME280;45172;55.006;73.460;2023-08-17T10:38:31;100553.63;;;23.84;nan
59375;BME280;45172;55.006;73.460;2023-08-17T10:41:14;100561.75;;;23.84;nan
59375;BME280;45172;55.006;73.460;2023-08-17T10:43:57;100551.06;;;23.80;nan
59375;BME280;45172;55.006;73.460;2023-08-17T10:46:34;100577.38;;;23.75;nan
59375;BME280;45172;55.006;73.460;2023-08-17T10:49:05;100560.72;;;23.62;nan
59375;BME280;45172;55.006;73.460;2023-08-17T10:51:34;100565.44;;;23.57;nan
59375;BME280;45172;55.006;73.460;2023-08-17T10:54:03;100572.59;;;23.58;nan
59375;BME280;45172;55.006;73.460;2023-08-17T10:56:30;100577.56;;;23.45;nan
59375;BME280;45172;55.006;73.460;2023-08-17T10:59:02;100577.03;;;23.34;nan
59375;BME280;45172;55.006;73.460;2023-08-17T11:01:35;100557.63;;;23.21;nan
59375;BME280;45172;55.006;73.460;2023-08-17T11:04:32;100572.16;;;23.17;nan
59375;BME280;45172;55.006;73.460;2023-08-17T11:07:13;100560.88;;;23.04;nan
59375;BME280;45172;55.006;73.460;2023-08-17T11:09:41;100576.00;;;23.09;nan
59375;BME280;45172;55.006;73.460;2023-08-17T11:12:25;100578.34;;;22.93;nan
59375;BME280;45172;55.006;73.460;2023-08-17T11:14:51;100580.97;;;22.95;nan
59375;BME280;45172;55.006;73.460;2023-08-17T11:17:20;100536.34;;;22.54;nan
59375;BME280;45172;55.006;73.460;2023-08-17T11:19:47;100574.44;;;22.74;nan
59375;BME280;45172;55.006;73.460;2023-08-17T11:22:17;100545.63;;;22.44;nan
59375;BME280;45172;55.006;73.460;2023-08-17T11:24:43;100574.97;;;22.56;nan
59375;BME280;45172;55.006;73.460;2023-08-17T11:27:10;100577.72;;;22.55;nan
59375;BME280;45172;55.006;73.460;2023-08-17T11:29:36;100577.88;;;22.49;nan
59375;BME280;45172;55.006;73.460;2023-08-17T11:32:03;100590.72;;;22.40;nan
59375;BME280;45172;55.006;73.460;2023-08-17T11:34:30;100546.75;;;22.07;nan
59375;BME280;45172;55.006;73.460;2023-08-17T11:36:59;100579.56;;;22.23;nan
59375;BME280;45172;55.006;73.460;2023-08-17T11:39:25;100585.13;;;22.16;nan
59375;BME280;45172;55.006;73.460;2023-08-17T11:41:52;100588.00;;;22.10;nan
59375;BME280;45172;55.006;73.460;2023-08-17T11:44:18;100594.47;;;22.05;nan
59375;BME280;45172;55.006;73.460;2023-08-17T11:46:47;100577.66;;;21.95;nan
59375;BME280;45172;55.006;73.460;2023-08-17T11:49:13;100592.81;;;21.99;nan
59375;BME280;45172;55.006;73.460;2023-08-17T11:51:39;100587.53;;;21.94;nan
59375;BME280;45172;55.006;73.460;2023-08-17T11:54:06;100594.78;;;21.92;nan
59375;BME280;45172;55.006;73.460;2023-08-17T11:56:34;100578.75;;;21.87;nan
59375;BME280;45172;55.006;73.460;2023-08-17T11:59:11;100592.19;;;21.89;nan
59375;BME280;45172;55.006;73.460;2023-08-17T12:01:44;100591.41;;;21.85;nan
59375;BME280;45172;55.006;73.460;2023-08-17T12:04:10;100602.91;;;21.90;nan
59375;BME280;45172;55.006;73.460;2023-08-17T12:06:44;100598.59;;;21.85;nan
59375;BME280;45172;55.006;73.460;2023-08-17T12:09:11;100600.41;;;21.84;nan
59375;BME280;45172;55.006;73.460;2023-08-17T12:11:40;100592.63;;;21.73;nan
59375;BME280;45172;55.006;73.460;2023-08-17T12:14:10;100596.25;;;21.72;nan
59375;BME280;45172;55.006;73.460;2023-08-17T12:16:47;100586.00;;;21.51;nan
59375;BME280;45172;55.006;73.460;2023-08-17T12:19:19;100608.22;;;21.60;nan
59375;BME280;45172;55.006;73.460;2023-08-17T12:21:48;100608.25;;;21.59;nan
59375;BME280;45172;55.006;73.460;2023-08-17T12:24:14;100578.31;;;21.35;nan
59375;BME280;45172;55.006;73.460;2023-08-17T12:26:43;100612.03;;;21.50;nan
59375;BME280;45172;55.006;73.460;2023-08-17T12:29:10;100594.41;;;21.37;nan
59375;BME280;45172;55.006;73.460;2023-08-17T12:31:36;100594.53;;;21.32;nan
59375;BME280;45172;55.006;73.460;2023-08-17T12:36:31;100611.47;;;21.39;nan
59375;BME280;45172;55.006;73.460;2023-08-17T12:38:57;100612.44;;;21.34;nan
59375;BME280;45172;55.006;73.460;2023-08-17T12:41:24;100611.66;;;21.29;nan
59375;BME280;45172;55.006;73.460;2023-08-17T12:43:56;100602.09;;;21.52;nan
59375;BME280;45172;55.006;73.460;2023-08-17T12:46:25;100615.91;;;22.09;nan
59375;BME280;45172;55.006;73.460;2023-08-17T12:48:52;100592.72;;;22.34;nan
59375;BME280;45172;55.006;73.460;2023-08-17T12:51:18;100615.88;;;22.73;nan
59375;BME280;45172;55.006;73.460;2023-08-17T12:53:44;100623.78;;;23.07;nan
59375;BME280;45172;55.006;73.460;2023-08-17T12:56:10;100617.22;;;23.16;nan
59375;BME280;45172;55.006;73.460;2023-08-17T12:58:36;100617.25;;;23.43;nan
59375;BME280;45172;55.006;73.460;2023-08-17T13:01:02;100619.22;;;23.65;nan
59375;BME280;45172;55.006;73.460;2023-08-17T13:03:28;100622.94;;;23.88;nan
59375;BME280;45172;55.006;73.460;2023-08-17T13:05:55;100627.94;;;23.99;nan
59375;BME280;45172;55.006;73.460;2023-08-17T13:08:21;100616.72;;;24.11;nan
59375;BME280;45172;55.006;73.460;2023-08-17T13:10:47;100635.94;;;24.02;nan
59375;BME280;45172;55.006;73.460;2023-08-17T13:13:14;100631.47;;;24.01;nan